首页
METAR-TAF:

METAR-TAF

机场 :

埃德蒙顿国际机场

埃德蒙顿, 艾伯塔, 加拿大

纬度: 53-18N, 经度: 113-35W, 海拔: 715米

当前天气观测

该预报发布于14分钟前的23:00 UTC
风速7节,风向西北
温度 24°C
湿度 61%
气压 1011 hPa
能見度: 24.1公里
少量云层高于3200英尺, 积雨云.
少量云层高于9500英尺
多云层高于18000英尺
多云层高于24000英尺

METAR: CYEG 232300Z 32007KT 15SM FEW032CB FEW095 BKN180 BKN240 24/16 A2986 RMK CB1AC1AS4CI1 AC TR SLP110 DENSITY ALT 4000FT

时间: 17:14 (23:14 UTC)

预报

该预报发布于1小时和56分钟前的21:18 UTC
预报有效从23日的 21点(UTC)到 24日的 18点(UTC)
风速12节,风向西北
能見度: 10公里
散云层高于3000英尺
多云层高于10000英尺
小阵雨
短暂存在
从 23日的 21点(UTC)到 24日的 02点(UTC)
能見度: 10公里
多云层高于3000英尺, 积雨云.
阴天层高于10000英尺
小阵雨, 附近有雷暴
从 24日的 0200点(UTC)
风速6节,风向
能見度: 10公里
散云层高于4000英尺
多云层高于8000英尺
从 24日的 0600点(UTC)
风速3节,风向多变
能見度: 10公里
天空无云
几率 30%
从 24日的 10点(UTC)到 24日的 14点(UTC)
能見度: 1.2公里
轻雾
从 24日的 1600点(UTC)
风速5节,风向西转西北
能見度: 10公里
天空无云
成为
从 24日的 16点(UTC)到 24日的 18点(UTC)
风速6节,风向东南

TAF: CYEG 232118Z 2321/2418 32012KT P6SM -SHRA SCT030 BKN100 TEMPO 2321/2402 P6SM -SHRA VCTS BKN030CB OVC100 FM240200 36006KT P6SM SCT040 BKN080 FM240600 VRB03KT P6SM SKC PROB30 2410/2414 3/4SM BR FM241600 29005KT P6SM SKC BECMG 2416/2418 14006KT RMK NXT FCST BY 240000Z

超过4000个机场的气象观测和天气预报(METAR&TAF报告)。

可查询的气象台以黄色和红色小点在地图上表示。

将鼠标移到小点上方,可查看气象台名称。

然后点击查看天气观测和预报。

如需切换地图:点击带黑十字的绿色按钮放大地图;点击带横线的绿色按钮缩小地图;或者点击绿色箭头查看邻近地区的地图。


METAR-TAF: